createdAt,value
2022-09-14T00:02:16.211Z,26.77
2022-09-14T00:04:43.867Z,26.74
2022-09-14T00:07:11.780Z,26.59
2022-09-14T00:09:39.550Z,26.64
2022-09-14T00:12:08.614Z,26.57
2022-09-14T00:14:37.164Z,26.65
2022-09-14T00:17:04.703Z,26.72
2022-09-14T00:19:32.502Z,26.82
2022-09-14T00:22:00.899Z,26.91
2022-09-14T00:24:33.043Z,26.93
2022-09-14T00:27:00.842Z,26.91
2022-09-14T00:29:30.130Z,26.86
2022-09-14T00:31:58.739Z,26.83
2022-09-14T00:34:26.620Z,26.84
2022-09-14T00:36:56.301Z,26.96
2022-09-14T00:39:25.972Z,27.01
2022-09-14T00:41:53.442Z,27.06
2022-09-14T00:44:21.304Z,27.08
2022-09-14T00:46:51.820Z,26.99
2022-09-14T00:49:26.256Z,26.84
2022-09-14T00:52:04.435Z,26.78
2022-09-14T00:54:32.901Z,26.74
2022-09-14T00:57:04.764Z,26.70
2022-09-14T00:59:36.965Z,26.51
2022-09-14T01:02:06.255Z,26.47
2022-09-14T01:04:33.821Z,26.55
2022-09-14T01:07:10.994Z,26.45
2022-09-14T01:09:51.755Z,26.40
2022-09-14T01:12:26.209Z,26.50
2022-09-14T01:15:32.904Z,26.54
2022-09-14T01:18:20.720Z,26.48
2022-09-14T01:20:56.154Z,26.52
2022-09-14T01:23:53.577Z,26.56
2022-09-14T01:26:47.577Z,26.45
2022-09-14T01:29:44.870Z,26.45
2022-09-14T01:32:19.728Z,26.40
2022-09-14T01:35:01.901Z,26.47
2022-09-14T01:37:41.538Z,26.56
2022-09-14T01:40:26.186Z,26.32
2022-09-14T01:43:00.588Z,26.30
2022-09-14T01:45:31.796Z,26.16
2022-09-14T01:48:06.718Z,26.10
2022-09-14T01:50:43.903Z,26.23
2022-09-14T01:53:20.674Z,26.30
2022-09-14T01:56:15.744Z,26.20
2022-09-14T01:58:57.397Z,26.07
2022-09-14T02:01:51.851Z,26.03
2022-09-14T02:04:37.056Z,26.07
2022-09-14T02:07:04.941Z,25.73
2022-09-14T02:09:32.517Z,25.34
2022-09-14T02:12:01.329Z,25.04
2022-09-14T02:14:29.885Z,24.79
2022-09-14T02:16:58.140Z,24.46
2022-09-14T02:19:29.972Z,24.43
2022-09-14T02:21:57.663Z,23.97
2022-09-14T02:24:25.244Z,23.61
2022-09-14T02:26:55.803Z,23.48
2022-09-14T02:29:31.097Z,23.78
2022-09-14T02:32:44.538Z,23.76
2022-09-14T02:35:25.131Z,23.43
2022-09-14T02:38:01.750Z,23.66
2022-09-14T02:41:00.810Z,23.71
2022-09-14T02:43:56.923Z,23.85
2022-09-14T02:46:45.111Z,23.61
2022-09-14T02:49:25.846Z,23.66
2022-09-14T02:52:19.940Z,23.91
2022-09-14T02:55:19.429Z,24.09
2022-09-14T02:58:19.813Z,24.24
2022-09-14T03:00:51.575Z,24.20
2022-09-14T03:03:21.018Z,23.84
2022-09-14T03:05:48.824Z,23.79
2022-09-14T03:08:16.372Z,23.85
2022-09-14T03:10:44.990Z,24.08
2022-09-14T03:13:13.061Z,24.14
2022-09-14T03:15:41.184Z,24.36
2022-09-14T03:18:14.102Z,24.46
2022-09-14T03:20:43.239Z,24.57
2022-09-14T03:23:18.193Z,24.68
2022-09-14T03:25:45.703Z,24.77
2022-09-14T03:28:13.790Z,24.65
2022-09-14T03:30:41.524Z,24.76
2022-09-14T03:33:09.026Z,24.80
2022-09-14T03:35:36.532Z,24.89
2022-09-14T03:38:04.338Z,24.81
2022-09-14T03:40:32.112Z,24.72
2022-09-14T03:43:00.161Z,24.75
2022-09-14T03:45:27.655Z,24.74
2022-09-14T03:47:55.883Z,24.64
2022-09-14T03:50:23.326Z,24.72
2022-09-14T03:52:51.297Z,24.84
2022-09-14T03:55:19.699Z,24.83
2022-09-14T03:57:47.262Z,24.84
2022-09-14T04:00:15.713Z,24.87
2022-09-14T04:02:44.502Z,24.73
2022-09-14T04:05:12.230Z,24.65
2022-09-14T04:07:39.738Z,24.55
2022-09-14T04:10:08.634Z,24.45
2022-09-14T04:12:37.939Z,24.55
2022-09-14T04:15:07.441Z,24.42
2022-09-14T04:17:35.887Z,24.36
2022-09-14T04:20:04.061Z,24.21
2022-09-14T04:22:31.488Z,24.46
2022-09-14T04:24:59.061Z,23.80
2022-09-14T04:27:26.784Z,24.17
2022-09-14T04:29:54.054Z,24.14
2022-09-14T04:32:21.472Z,24.27
2022-09-14T04:34:52.048Z,24.03
2022-09-14T04:37:19.815Z,24.13
2022-09-14T04:39:47.552Z,24.30
2022-09-14T04:42:15.415Z,24.19
2022-09-14T04:44:42.771Z,24.03
2022-09-14T04:47:11.001Z,24.12
2022-09-14T04:49:38.616Z,24.05
2022-09-14T04:52:06.723Z,24.07
2022-09-14T04:54:34.679Z,23.91
2022-09-14T04:57:06.131Z,23.98
2022-09-14T04:59:35.362Z,24.12
2022-09-14T05:02:03.174Z,24.14
2022-09-14T05:04:30.675Z,23.94
2022-09-14T05:06:58.291Z,24.07
2022-09-14T05:09:25.921Z,24.20
2022-09-14T05:11:53.704Z,24.03
2022-09-14T05:14:21.227Z,24.02
2022-09-14T05:16:48.785Z,23.96
2022-09-14T05:19:18.618Z,24.02
2022-09-14T05:21:47.462Z,23.79
2022-09-14T05:24:19.249Z,23.97
2022-09-14T05:26:48.435Z,23.88
2022-09-14T05:29:18.125Z,23.83
2022-09-14T05:31:46.786Z,23.85
2022-09-14T05:34:15.623Z,23.97
2022-09-14T05:36:43.709Z,23.99
2022-09-14T05:39:11.583Z,24.12
2022-09-14T05:41:52.860Z,24.29
2022-09-14T05:44:21.055Z,24.40
2022-09-14T05:46:48.673Z,24.28
2022-09-14T05:49:17.538Z,24.25
2022-09-14T05:51:46.885Z,24.41
2022-09-14T05:54:15.450Z,24.47
2022-09-14T05:56:43.497Z,24.56
2022-09-14T05:59:11.734Z,24.58
2022-09-14T06:01:39.837Z,24.44
2022-09-14T06:04:07.813Z,24.33
2022-09-14T06:06:35.380Z,24.29
2022-09-14T06:09:04.272Z,24.36
2022-09-14T06:11:36.832Z,24.26
2022-09-14T06:14:05.531Z,24.28
2022-09-14T06:16:34.875Z,24.33
2022-09-14T06:19:05.569Z,24.41
2022-09-14T06:21:35.857Z,24.57
2022-09-14T06:24:04.199Z,24.48
2022-09-14T06:26:33.043Z,24.63
2022-09-14T06:29:01.172Z,24.67
2022-09-14T06:31:28.766Z,24.80
2022-09-14T06:33:56.901Z,24.94
2022-09-14T06:36:46.020Z,25.07
2022-09-14T06:39:14.589Z,25.12
2022-09-14T06:41:42.736Z,24.83
2022-09-14T06:44:20.029Z,24.98
2022-09-14T06:46:47.842Z,24.94
2022-09-14T06:49:25.227Z,24.94
2022-09-14T06:51:56.406Z,24.77
2022-09-14T06:54:25.654Z,24.35
2022-09-14T06:56:57.089Z,24.35
2022-09-14T06:59:25.309Z,24.36
2022-09-14T07:01:53.428Z,24.53
2022-09-14T07:04:21.888Z,24.65
2022-09-14T07:06:50.680Z,24.67
2022-09-14T07:09:19.926Z,24.87
2022-09-14T07:11:48.513Z,24.86
2022-09-14T07:14:17.005Z,25.02
2022-09-14T07:16:44.548Z,25.08
2022-09-14T07:19:16.307Z,25.07
2022-09-14T07:21:44.016Z,25.10
2022-09-14T07:24:15.391Z,25.14
2022-09-14T07:26:46.616Z,25.20
2022-09-14T07:29:24.412Z,24.92
2022-09-14T07:31:57.002Z,25.01
2022-09-14T07:34:25.994Z,24.98
2022-09-14T07:36:53.487Z,25.12
2022-09-14T07:39:24.257Z,25.15
2022-09-14T07:41:52.078Z,25.13
2022-09-14T07:44:19.814Z,25.15
2022-09-14T07:46:49.651Z,25.33
2022-09-14T07:49:17.959Z,25.43
2022-09-14T07:51:49.048Z,25.46
2022-09-14T07:54:20.493Z,25.51
2022-09-14T07:56:49.686Z,25.49
2022-09-14T07:59:35.145Z,25.11
2022-09-14T08:02:07.665Z,25.25
2022-09-14T08:04:36.901Z,25.28
2022-09-14T08:07:05.287Z,25.20
2022-09-14T08:09:33.690Z,24.89
2022-09-14T08:12:01.369Z,24.65
2022-09-14T08:14:28.923Z,24.51
2022-09-14T08:16:56.636Z,24.58
2022-09-14T08:19:24.626Z,24.65
2022-09-14T08:21:52.680Z,24.76
2022-09-14T08:24:22.832Z,24.87
2022-09-14T08:26:50.882Z,25.13
2022-09-14T08:29:20.094Z,25.30
2022-09-14T08:31:49.013Z,25.42
2022-09-14T08:34:17.547Z,25.55
2022-09-14T08:36:46.549Z,25.48
2022-09-14T08:39:15.871Z,25.43
2022-09-14T08:41:54.330Z,25.03
2022-09-14T08:44:47.590Z,24.67
2022-09-14T08:47:34.638Z,24.80
2022-09-14T08:50:12.077Z,24.87
2022-09-14T08:52:43.958Z,24.84
2022-09-14T08:55:30.934Z,24.92
2022-09-14T08:58:10.363Z,25.09
2022-09-14T09:00:47.553Z,25.23
2022-09-14T09:03:25.448Z,25.38
2022-09-14T09:06:00.927Z,25.49
2022-09-14T09:09:02.662Z,25.47
2022-09-14T09:11:46.899Z,25.59
2022-09-14T09:14:44.510Z,25.52
2022-09-14T09:17:18.816Z,25.64
2022-09-14T09:20:02.984Z,25.77
2022-09-14T09:22:37.596Z,25.62
2022-09-14T09:25:08.133Z,25.86
2022-09-14T09:27:35.928Z,25.95
2022-09-14T09:30:03.650Z,25.86
2022-09-14T09:32:31.832Z,25.83
2022-09-14T09:35:22.457Z,25.53
2022-09-14T09:38:02.307Z,25.58
2022-09-14T09:40:36.874Z,25.64
2022-09-14T09:43:11.295Z,25.61
2022-09-14T09:45:55.974Z,25.64
2022-09-14T09:48:45.825Z,25.74
2022-09-14T09:51:27.948Z,25.74
2022-09-14T09:54:06.093Z,25.91
2022-09-14T09:56:38.085Z,26.01
2022-09-14T09:59:27.679Z,25.92
2022-09-14T10:01:57.328Z,25.70
2022-09-14T10:04:36.023Z,25.67
2022-09-14T10:07:07.204Z,25.69
2022-09-14T10:09:35.884Z,25.83
2022-09-14T10:12:05.649Z,25.90
2022-09-14T10:14:36.067Z,26.11
2022-09-14T10:17:21.882Z,26.26
2022-09-14T10:19:52.859Z,26.33
2022-09-14T10:22:31.440Z,26.22
2022-09-14T10:25:32.660Z,26.22
2022-09-14T10:28:01.798Z,26.20
2022-09-14T10:30:42.249Z,26.30
2022-09-14T10:33:13.838Z,26.50
2022-09-14T10:36:09.100Z,26.55
2022-09-14T10:38:46.333Z,26.70
2022-09-14T10:41:55.180Z,26.79
2022-09-14T10:44:47.429Z,26.68
2022-09-14T10:47:33.204Z,26.58
2022-09-14T10:50:33.619Z,26.65
2022-09-14T10:53:37.946Z,26.78
2022-09-14T10:56:14.430Z,26.81
2022-09-14T10:58:53.559Z,26.89
2022-09-14T11:01:36.028Z,26.85
2022-09-14T11:04:38.217Z,26.90
2022-09-14T11:07:16.131Z,26.79
2022-09-14T11:09:54.341Z,26.87
2022-09-14T11:12:27.848Z,26.95
2022-09-14T11:15:22.608Z,27.04
2022-09-14T11:18:02.732Z,27.02
2022-09-14T11:21:04.426Z,27.18
2022-09-14T11:23:37.951Z,27.29
2022-09-14T11:26:16.790Z,27.45
2022-09-14T11:28:51.286Z,27.58
2022-09-14T11:31:59.007Z,27.68
2022-09-14T11:34:55.085Z,27.74
2022-09-14T11:37:47.551Z,27.84
2022-09-14T11:40:32.104Z,27.94
2022-09-14T11:43:13.482Z,27.77
2022-09-14T11:45:50.942Z,27.71
2022-09-14T11:48:41.929Z,27.68
2022-09-14T11:51:15.713Z,27.81
2022-09-14T11:53:48.318Z,27.84
2022-09-14T11:56:27.237Z,27.84
2022-09-14T11:59:08.349Z,27.84
2022-09-14T12:01:39.108Z,27.85
2022-09-14T12:04:18.470Z,27.97
2022-09-14T12:06:51.971Z,28.02
2022-09-14T12:09:21.726Z,28.16
2022-09-14T12:12:00.979Z,28.31
2022-09-14T12:14:36.894Z,28.35
2022-09-14T12:17:41.437Z,28.43
2022-09-14T12:20:26.985Z,28.41
2022-09-14T12:23:25.542Z,28.44
2022-09-14T12:26:12.237Z,28.56
2022-09-14T12:28:48.426Z,28.57
2022-09-14T12:31:37.791Z,28.62
2022-09-14T12:34:15.507Z,28.67
2022-09-14T12:36:43.110Z,28.62
2022-09-14T12:39:22.203Z,28.68
2022-09-14T12:41:56.193Z,28.79
2022-09-14T12:44:39.213Z,28.84
2022-09-14T12:47:25.773Z,28.91
2022-09-14T12:50:22.732Z,28.94
2022-09-14T12:53:10.937Z,28.98
2022-09-14T12:55:50.551Z,28.95
2022-09-14T12:58:35.798Z,29.01
2022-09-14T13:01:22.136Z,29.03
2022-09-14T13:03:58.805Z,29.05
2022-09-14T13:06:35.494Z,29.11
2022-09-14T13:09:09.605Z,29.12
2022-09-14T13:11:41.715Z,29.15
2022-09-14T13:14:19.055Z,29.19
2022-09-14T13:16:52.799Z,29.12
2022-09-14T13:19:33.644Z,29.04
2022-09-14T13:22:03.553Z,29.12
2022-09-14T13:24:53.144Z,29.10
2022-09-14T13:27:31.862Z,29.12
2022-09-14T13:30:28.322Z,29.14
2022-09-14T13:33:04.335Z,29.15
2022-09-14T13:36:00.273Z,29.20
2022-09-14T13:38:34.553Z,29.14
2022-09-14T13:41:23.497Z,29.13
2022-09-14T13:43:58.818Z,29.13
2022-09-14T13:46:28.515Z,29.20
2022-09-14T13:49:01.170Z,29.22
2022-09-14T13:51:34.494Z,29.24
2022-09-14T13:54:40.443Z,29.14
2022-09-14T13:57:30.416Z,29.09
2022-09-14T14:00:09.158Z,28.99
2022-09-14T14:02:37.494Z,28.93
2022-09-14T14:05:06.670Z,28.88
2022-09-14T14:07:35.909Z,28.86
2022-09-14T14:10:05.413Z,28.87
2022-09-14T14:12:38.106Z,28.86
2022-09-14T14:15:12.619Z,28.90
2022-09-14T14:18:18.741Z,28.96
2022-09-14T14:20:46.956Z,29.02
2022-09-14T14:23:24.197Z,29.02
2022-09-14T14:26:20.339Z,29.02
2022-09-14T14:28:49.000Z,28.98
2022-09-14T14:31:20.452Z,28.91
2022-09-14T14:33:51.461Z,28.96
2022-09-14T14:36:19.975Z,29.01
2022-09-14T14:38:48.551Z,29.00
2022-09-14T14:41:19.655Z,28.99
2022-09-14T14:43:51.179Z,28.99
2022-09-14T14:46:39.166Z,28.88
2022-09-14T14:49:08.518Z,28.97
2022-09-14T14:51:35.978Z,28.95
2022-09-14T14:54:03.838Z,28.89
2022-09-14T14:56:31.598Z,28.93
2022-09-14T14:59:02.193Z,28.94
2022-09-14T15:01:30.674Z,28.95
2022-09-14T15:04:00.073Z,28.98
2022-09-14T15:06:28.169Z,28.96
2022-09-14T15:08:57.552Z,29.03
2022-09-14T15:11:25.465Z,29.07
2022-09-14T15:13:53.173Z,29.08
2022-09-14T15:16:21.051Z,29.09
2022-09-14T15:18:52.428Z,29.09
2022-09-14T15:21:21.681Z,29.03
2022-09-14T15:23:50.150Z,29.05
2022-09-14T15:26:22.312Z,29.09
2022-09-14T15:28:57.048Z,29.13
2022-09-14T15:31:24.913Z,29.14
2022-09-14T15:33:53.379Z,29.15
2022-09-14T15:36:37.861Z,29.15
2022-09-14T15:39:07.858Z,29.12
2022-09-14T15:41:43.106Z,29.12
2022-09-14T15:44:12.497Z,29.13
2022-09-14T15:46:41.413Z,29.11
2022-09-14T15:49:15.380Z,29.16
2022-09-14T15:51:44.665Z,29.16
2022-09-14T15:54:13.684Z,29.23
2022-09-14T15:56:42.514Z,29.24
2022-09-14T15:59:10.718Z,29.22
2022-09-14T16:01:38.816Z,29.21
2022-09-14T16:04:11.526Z,29.29
2022-09-14T16:06:45.251Z,29.26
2022-09-14T16:09:14.802Z,29.33
2022-09-14T16:11:43.455Z,29.38
2022-09-14T16:14:12.316Z,29.40
2022-09-14T16:16:41.014Z,29.43
2022-09-14T16:19:11.772Z,29.39
2022-09-14T16:21:40.558Z,29.45
2022-09-14T16:24:13.443Z,29.35
2022-09-14T16:26:42.195Z,29.40
2022-09-14T16:29:12.371Z,29.43
2022-09-14T16:31:43.219Z,29.41
2022-09-14T16:34:20.256Z,29.49
2022-09-14T16:36:49.624Z,29.52
2022-09-14T16:39:21.549Z,29.59
2022-09-14T16:41:52.969Z,29.64
2022-09-14T16:44:24.053Z,29.63
2022-09-14T16:46:53.759Z,29.62
2022-09-14T16:49:27.014Z,29.50
2022-09-14T16:51:56.705Z,29.45
2022-09-14T16:54:27.705Z,29.39
2022-09-14T16:56:57.404Z,29.25
2022-09-14T16:59:24.811Z,29.26
2022-09-14T17:01:54.949Z,29.11
2022-09-14T17:04:25.587Z,29.17
2022-09-14T17:06:59.195Z,29.09
2022-09-14T17:09:38.363Z,29.07
2022-09-14T17:12:17.089Z,29.03
2022-09-14T17:14:59.298Z,29.00
2022-09-14T17:17:47.855Z,28.97
2022-09-14T17:20:30.957Z,28.97
2022-09-14T17:23:35.704Z,28.96
2022-09-14T17:26:11.271Z,28.90
2022-09-14T17:29:03.630Z,28.86
2022-09-14T17:31:47.253Z,28.81
2022-09-14T17:34:18.736Z,28.77
2022-09-14T17:36:49.953Z,28.76
2022-09-14T17:39:20.641Z,28.67
2022-09-14T17:41:49.539Z,28.62
2022-09-14T17:44:18.425Z,28.53
2022-09-14T17:46:52.738Z,28.51
2022-09-14T17:49:22.703Z,28.54
2022-09-14T17:51:52.594Z,28.50
2022-09-14T17:54:23.418Z,28.53
2022-09-14T17:56:54.291Z,28.57
2022-09-14T17:59:25.852Z,28.54
2022-09-14T18:01:54.334Z,28.46
2022-09-14T18:04:26.128Z,28.47
2022-09-14T18:06:54.456Z,28.45
2022-09-14T18:09:25.209Z,28.41
2022-09-14T18:11:58.240Z,28.44
2022-09-14T18:14:27.168Z,28.40
2022-09-14T18:17:01.032Z,28.40
2022-09-14T18:19:29.860Z,28.36
2022-09-14T18:22:01.559Z,28.23
2022-09-14T18:24:34.926Z,28.26
2022-09-14T18:27:03.284Z,28.23
2022-09-14T18:29:36.674Z,28.19
2022-09-14T18:32:07.989Z,28.14
2022-09-14T18:34:36.291Z,28.03
2022-09-14T18:37:04.059Z,28.13
2022-09-14T18:39:43.196Z,28.10
2022-09-14T18:42:11.839Z,28.10
2022-09-14T18:44:41.582Z,28.03
2022-09-14T18:47:09.416Z,28.06
2022-09-14T18:49:40.358Z,28.00
2022-09-14T18:52:11.548Z,27.89
2022-09-14T18:54:43.396Z,27.77
2022-09-14T18:57:11.787Z,27.84
2022-09-14T18:59:39.626Z,27.78
2022-09-14T19:02:07.579Z,27.77
2022-09-14T19:04:38.660Z,27.74
2022-09-14T19:07:09.185Z,27.76
2022-09-14T19:09:37.980Z,27.80
2022-09-14T19:12:07.444Z,27.79
2022-09-14T19:14:38.930Z,27.83
2022-09-14T19:17:22.913Z,27.82
2022-09-14T19:19:50.926Z,27.74
2022-09-14T19:22:18.701Z,27.76
2022-09-14T19:24:49.128Z,27.74
2022-09-14T19:27:18.036Z,27.76
2022-09-14T19:29:45.534Z,27.77
2022-09-14T19:32:14.328Z,27.75
2022-09-14T19:34:42.854Z,27.79
2022-09-14T19:37:11.098Z,27.77
2022-09-14T19:39:43.230Z,27.75
2022-09-14T19:42:12.603Z,27.76
2022-09-14T19:44:40.163Z,27.75
2022-09-14T19:47:12.318Z,27.73
2022-09-14T19:49:40.108Z,27.74
2022-09-14T19:52:08.046Z,27.69
2022-09-14T19:54:38.008Z,27.60
2022-09-14T19:57:06.396Z,27.62
2022-09-14T19:59:34.099Z,27.62
2022-09-14T20:02:01.738Z,27.70
2022-09-14T20:04:29.399Z,27.68
2022-09-14T20:06:56.904Z,27.70
2022-09-14T20:09:25.145Z,27.76
2022-09-14T20:11:53.776Z,27.74
2022-09-14T20:14:24.677Z,27.72
2022-09-14T20:16:55.399Z,27.76
2022-09-14T20:19:43.403Z,27.68
2022-09-14T20:22:14.872Z,27.69
2022-09-14T20:24:44.746Z,27.64
2022-09-14T20:27:12.475Z,27.69
2022-09-14T20:29:39.969Z,27.73
2022-09-14T20:32:07.437Z,27.70
2022-09-14T20:34:38.473Z,27.69
2022-09-14T20:37:06.418Z,27.56
2022-09-14T20:39:38.591Z,27.62
2022-09-14T20:42:06.375Z,27.60
2022-09-14T20:44:34.085Z,27.58
2022-09-14T20:47:04.726Z,27.63
2022-09-14T20:49:33.081Z,27.66
2022-09-14T20:52:03.226Z,27.63
2022-09-14T20:54:31.452Z,27.68
2022-09-14T20:57:03.503Z,27.56
2022-09-14T20:59:32.694Z,27.56
2022-09-14T21:02:10.719Z,27.44
2022-09-14T21:04:39.524Z,27.39
2022-09-14T21:07:07.376Z,27.31
2022-09-14T21:09:36.715Z,27.29
2022-09-14T21:12:05.163Z,27.15
2022-09-14T21:14:32.757Z,27.15
2022-09-14T21:17:00.787Z,27.11
2022-09-14T21:19:29.061Z,27.15
2022-09-14T21:21:56.942Z,27.10
2022-09-14T21:24:25.433Z,27.01
2022-09-14T21:26:52.985Z,26.95
2022-09-14T21:29:24.293Z,26.97
2022-09-14T21:31:53.069Z,27.03
2022-09-14T21:34:22.658Z,26.97
2022-09-14T21:36:52.333Z,26.92
2022-09-14T21:39:23.945Z,26.90
2022-09-14T21:41:58.872Z,26.94
2022-09-14T21:44:35.448Z,26.95
2022-09-14T21:47:04.044Z,26.83
2022-09-14T21:49:36.428Z,26.83
2022-09-14T21:52:09.158Z,26.84
2022-09-14T21:54:39.096Z,26.79
2022-09-14T21:57:07.714Z,26.78
2022-09-14T21:59:36.985Z,26.73
2022-09-14T22:02:04.919Z,26.74
2022-09-14T22:04:32.476Z,26.65
2022-09-14T22:07:00.335Z,26.68
2022-09-14T22:09:29.558Z,26.64
2022-09-14T22:11:57.458Z,26.64
2022-09-14T22:14:29.205Z,26.69
2022-09-14T22:17:01.351Z,26.71
2022-09-14T22:19:33.202Z,26.72
2022-09-14T22:22:01.798Z,26.70
2022-09-14T22:24:38.293Z,26.67
2022-09-14T22:27:13.243Z,26.65
2022-09-14T22:29:41.354Z,26.59
2022-09-14T22:32:17.928Z,26.45
2022-09-14T22:34:49.494Z,26.42
2022-09-14T22:37:25.102Z,26.35
2022-09-14T22:39:52.823Z,26.33
2022-09-14T22:42:20.315Z,26.27
2022-09-14T22:44:48.120Z,26.27
2022-09-14T22:47:16.023Z,26.26
2022-09-14T22:49:50.205Z,26.10
2022-09-14T22:52:21.756Z,26.08
2022-09-14T22:54:56.867Z,26.11
2022-09-14T22:57:25.164Z,26.13
2022-09-14T22:59:54.190Z,26.11
2022-09-14T23:02:21.954Z,26.10
2022-09-14T23:04:50.633Z,26.16
2022-09-14T23:07:26.021Z,26.09
2022-09-14T23:09:53.662Z,26.12
2022-09-14T23:12:21.944Z,26.08
2022-09-14T23:14:49.903Z,26.05
2022-09-14T23:17:17.847Z,25.94
2022-09-14T23:19:45.408Z,26.02
2022-09-14T23:22:23.737Z,26.03
2022-09-14T23:24:51.297Z,26.04
2022-09-14T23:27:18.857Z,25.98
2022-09-14T23:29:46.374Z,25.95
2022-09-14T23:32:14.319Z,25.86
2022-09-14T23:34:42.126Z,25.81
2022-09-14T23:37:10.523Z,25.82
2022-09-14T23:39:38.846Z,25.87
2022-09-14T23:42:10.339Z,25.83
2022-09-14T23:44:38.316Z,25.86
2022-09-14T23:47:14.597Z,25.79
2022-09-14T23:49:42.745Z,25.82
2022-09-14T23:52:16.640Z,25.79
2022-09-14T23:54:44.538Z,25.79
2022-09-14T23:57:12.520Z,25.78
2022-09-14T23:59:40.808Z,25.66
